createdAt,value
2017-01-18T00:00:03.891Z,0.49
2017-01-18T00:01:04.659Z,0.46
2017-01-18T00:02:05.395Z,0.4
2017-01-18T00:03:06.139Z,0.47
2017-01-18T00:04:06.882Z,0.5
2017-01-18T00:05:07.641Z,0.5
2017-01-18T00:06:08.402Z,0.47
2017-01-18T00:07:09.138Z,0.44
2017-01-18T00:08:09.883Z,0.5
2017-01-18T00:09:10.635Z,0.49
2017-01-18T00:10:11.407Z,0.4
2017-01-18T00:11:12.153Z,0.49
2017-01-18T00:12:12.876Z,0.47
2017-01-18T00:13:13.636Z,0.47
2017-01-18T00:14:14.390Z,0.5
2017-01-18T00:15:15.144Z,0.6
2017-01-18T00:16:15.892Z,0.62
2017-01-18T00:17:16.702Z,0.62
2017-01-18T00:18:17.448Z,0.63
2017-01-18T00:19:18.194Z,0.6
2017-01-18T00:20:18.945Z,0.66
2017-01-18T00:21:19.694Z,0.59
2017-01-18T00:22:20.453Z,0.58
2017-01-18T00:23:21.219Z,0.5
2017-01-18T00:24:21.966Z,0.39
2017-01-18T00:25:22.710Z,0.37
2017-01-18T00:26:23.507Z,0.36
2017-01-18T00:27:24.281Z,0.39
2017-01-18T00:28:25.022Z,0.36
2017-01-18T00:29:25.786Z,0.31
2017-01-18T00:30:26.524Z,0.32
2017-01-18T00:31:27.279Z,0.25
2017-01-18T00:32:28.016Z,0.28
2017-01-18T00:33:28.754Z,0.23
2017-01-18T00:34:29.496Z,0.25
2017-01-18T00:35:30.231Z,0.21
2017-01-18T00:36:30.987Z,0.23
2017-01-18T00:37:31.735Z,0.25
2017-01-18T00:38:32.495Z,0.26
2017-01-18T00:39:33.257Z,0.12
2017-01-18T00:40:33.997Z,0.16
2017-01-18T00:41:34.767Z,0.25
2017-01-18T00:42:35.537Z,0.12
2017-01-18T00:43:36.271Z,0.21
2017-01-18T00:44:37.006Z,0.21
2017-01-18T00:45:37.742Z,0.07
2017-01-18T00:46:38.501Z,0.11
2017-01-18T00:47:39.262Z,0.16
2017-01-18T00:48:39.988Z,0.19
2017-01-18T00:49:40.738Z,0.19
2017-01-18T00:50:41.493Z,0.22
2017-01-18T00:51:42.268Z,0.12
2017-01-18T00:52:43.028Z,0.26
2017-01-18T00:53:43.808Z,0.34
2017-01-18T00:54:44.549Z,0.28
2017-01-18T00:55:45.306Z,0.23
2017-01-18T00:56:46.061Z,0.12
2017-01-18T00:57:46.811Z,0.15
2017-01-18T00:58:47.559Z,0.18
2017-01-18T00:59:48.300Z,0.15
2017-01-18T01:00:49.062Z,0.21
2017-01-18T01:01:49.815Z,0.18
2017-01-18T01:02:50.578Z,0.22
2017-01-18T01:03:51.319Z,0.15
2017-01-18T01:04:52.076Z,0.18
2017-01-18T01:05:52.836Z,0.29
2017-01-18T01:06:53.576Z,0.16
2017-01-18T01:07:54.345Z,0.23
2017-01-18T01:08:55.128Z,0.05
2017-01-18T01:09:55.889Z,0.16
2017-01-18T01:10:56.623Z,0.16
2017-01-18T01:11:57.367Z,0.18
2017-01-18T01:12:58.119Z,0.11
2017-01-18T01:13:58.909Z,0.19
2017-01-18T01:14:59.662Z,0.19
2017-01-18T01:16:00.386Z,0.28
2017-01-18T01:17:01.141Z,0.28
2017-01-18T01:18:01.894Z,0.11
2017-01-18T01:19:02.645Z,0.18
2017-01-18T01:20:03.387Z,0.23
2017-01-18T01:21:04.122Z,0.32
2017-01-18T01:22:04.877Z,0.22
2017-01-18T01:23:05.611Z,0.11
2017-01-18T01:24:06.363Z,0.15
2017-01-18T01:25:07.123Z,0.21
2017-01-18T01:26:07.898Z,0.18
2017-01-18T01:27:08.662Z,0.29
2017-01-18T01:28:09.413Z,0.16
2017-01-18T01:29:10.155Z,0.16
2017-01-18T01:30:10.898Z,0.19
2017-01-18T01:31:11.648Z,0.15
2017-01-18T01:32:12.414Z,0.22
2017-01-18T01:33:13.157Z,0.12
2017-01-18T01:34:13.906Z,0.15
2017-01-18T01:35:14.647Z,0.29
2017-01-18T01:36:15.401Z,0.28
2017-01-18T01:37:16.176Z,0.16
2017-01-18T01:38:16.913Z,0.18
2017-01-18T01:39:17.658Z,0.19
2017-01-18T01:40:18.449Z,0.15
2017-01-18T01:41:19.215Z,0.21
2017-01-18T01:42:19.952Z,0.19
2017-01-18T01:43:20.694Z,0.11
2017-01-18T01:44:21.440Z,0.11
2017-01-18T01:45:22.202Z,0.03
2017-01-18T01:46:22.964Z,0.05
2017-01-18T01:47:23.756Z,0.04
2017-01-18T01:48:24.501Z,0.15
2017-01-18T01:49:25.257Z,0.07
2017-01-18T01:50:26.015Z,0.01
2017-01-18T01:51:26.768Z,-0.07
2017-01-18T01:52:27.603Z,-0.11
2017-01-18T01:53:28.348Z,-0.13
2017-01-18T01:54:29.106Z,-0.06
2017-01-18T01:55:29.875Z,-0.06
2017-01-18T01:56:30.629Z,-0.03
2017-01-18T01:57:31.402Z,-0.03
2017-01-18T01:58:32.167Z,-0.06
2017-01-18T01:59:32.919Z,-0.13
2017-01-18T02:00:33.699Z,-0.11
2017-01-18T02:01:34.445Z,-0.11
2017-01-18T02:02:35.234Z,-0.11
2017-01-18T02:03:36.000Z,-0.13
2017-01-18T02:04:36.746Z,-0.18
2017-01-18T02:05:37.493Z,-0.18
2017-01-18T02:06:38.237Z,-0.15
2017-01-18T02:07:38.994Z,-0.15
2017-01-18T02:08:39.741Z,-0.14
2017-01-18T02:09:40.480Z,-0.29
2017-01-18T02:10:41.240Z,-0.44
2017-01-18T02:11:41.988Z,-0.31
2017-01-18T02:12:42.743Z,-0.35
2017-01-18T02:13:43.509Z,-0.36
2017-01-18T02:14:44.265Z,-0.46
2017-01-18T02:15:45.023Z,-0.36
2017-01-18T02:16:45.781Z,-0.32
2017-01-18T02:17:46.597Z,-0.46
2017-01-18T02:18:47.348Z,-0.52
2017-01-18T02:19:48.112Z,-0.46
2017-01-18T02:20:48.902Z,-0.52
2017-01-18T02:21:49.666Z,-0.57
2017-01-18T02:22:50.447Z,-0.61
2017-01-18T02:23:51.210Z,-0.64
2017-01-18T02:24:51.974Z,-0.62
2017-01-18T02:25:52.727Z,-0.54
2017-01-18T02:26:53.484Z,-0.64
2017-01-18T02:27:54.250Z,-0.67
2017-01-18T02:28:55.012Z,-0.7
2017-01-18T02:29:55.784Z,-0.7
2017-01-18T02:30:56.548Z,-0.77
2017-01-18T02:31:57.298Z,-0.68
2017-01-18T02:32:58.081Z,-0.71
2017-01-18T02:33:58.854Z,-0.86
2017-01-18T02:34:59.606Z,-0.9
2017-01-18T02:36:00.364Z,-0.9
2017-01-18T02:37:01.118Z,-0.75
2017-01-18T02:38:01.867Z,-0.75
2017-01-18T02:39:02.607Z,-0.64
2017-01-18T02:40:03.356Z,-0.71
2017-01-18T02:41:04.095Z,-0.67
2017-01-18T02:42:04.893Z,-0.7
2017-01-18T02:43:05.664Z,-0.72
2017-01-18T02:44:06.411Z,-0.72
2017-01-18T02:45:07.189Z,-0.7
2017-01-18T02:46:07.950Z,-0.62
2017-01-18T02:47:08.716Z,-0.54
2017-01-18T02:48:09.474Z,-0.61
2017-01-18T02:49:10.227Z,-0.62
2017-01-18T02:50:10.966Z,-0.59
2017-01-18T02:51:11.725Z,-0.57
2017-01-18T02:52:12.459Z,-0.53
2017-01-18T02:53:13.204Z,-0.57
2017-01-18T02:54:13.966Z,-0.54
2017-01-18T02:55:14.732Z,-0.47
2017-01-18T02:56:15.479Z,-0.49
2017-01-18T02:57:16.231Z,-0.43
2017-01-18T02:58:16.972Z,-0.41
2017-01-18T02:59:17.739Z,-0.39
2017-01-18T03:00:18.492Z,-0.36
2017-01-18T03:01:19.236Z,-0.41
2017-01-18T03:02:20.005Z,-0.5
2017-01-18T03:03:20.756Z,-0.5
2017-01-18T03:04:21.512Z,-0.61
2017-01-18T03:05:22.267Z,-0.62
2017-01-18T03:06:23.017Z,-0.64
2017-01-18T03:07:23.755Z,-0.54
2017-01-18T03:08:24.502Z,-0.61
2017-01-18T03:09:25.258Z,-0.61
2017-01-18T03:10:26.016Z,-0.57
2017-01-18T03:11:26.752Z,-0.62
2017-01-18T03:12:27.514Z,-0.61
2017-01-18T03:13:28.261Z,-0.62
2017-01-18T03:14:29.005Z,-0.61
2017-01-18T03:15:29.741Z,-0.59
2017-01-18T03:16:30.496Z,-0.64
2017-01-18T03:17:31.256Z,-0.59
2017-01-18T03:18:32.015Z,-0.59
2017-01-18T03:19:32.772Z,-0.59
2017-01-18T03:20:33.518Z,-0.61
2017-01-18T03:21:34.289Z,-0.64
2017-01-18T03:22:35.036Z,-0.64
2017-01-18T03:23:35.794Z,-0.65
2017-01-18T03:24:36.553Z,-0.65
2017-01-18T03:25:37.303Z,-0.46
2017-01-18T03:26:38.052Z,-0.59
2017-01-18T03:27:38.804Z,-0.54
2017-01-18T03:28:39.557Z,-0.5
2017-01-18T03:29:40.313Z,-0.62
2017-01-18T03:30:41.080Z,-0.56
2017-01-18T03:31:41.816Z,-0.64
2017-01-18T03:32:42.563Z,-0.62
2017-01-18T03:33:43.318Z,-0.57
2017-01-18T03:34:44.070Z,-0.61
2017-01-18T03:35:44.823Z,-0.64
2017-01-18T03:36:45.575Z,-0.65
2017-01-18T03:37:46.327Z,-0.59
2017-01-18T03:38:47.082Z,-0.57
2017-01-18T03:39:47.840Z,-0.62
2017-01-18T03:40:48.570Z,-0.61
2017-01-18T03:41:49.316Z,-0.64
2017-01-18T03:42:50.066Z,-0.67
2017-01-18T03:43:50.831Z,-0.61
2017-01-18T03:44:51.571Z,-0.68
2017-01-18T03:45:52.335Z,-0.65
2017-01-18T03:46:53.122Z,-0.67
2017-01-18T03:47:53.872Z,-0.71
2017-01-18T03:48:54.610Z,-0.72
2017-01-18T03:49:55.380Z,-0.78
2017-01-18T03:50:56.138Z,-0.72
2017-01-18T03:51:56.898Z,-0.71
2017-01-18T03:52:57.645Z,-0.78
2017-01-18T03:53:58.386Z,-0.74
2017-01-18T03:54:59.153Z,-0.74
2017-01-18T03:55:59.935Z,-0.75
2017-01-18T03:57:00.692Z,-0.74
2017-01-18T03:58:01.456Z,-0.74
2017-01-18T03:59:02.212Z,-0.8
2017-01-18T04:00:02.965Z,-0.72
2017-01-18T04:01:03.727Z,-0.78
2017-01-18T04:02:04.487Z,-0.77
2017-01-18T04:03:05.254Z,-0.74
2017-01-18T04:04:06.017Z,-0.67
2017-01-18T04:09:22.196Z,-0.44
2017-01-18T04:10:22.971Z,-0.43
2017-01-18T04:11:23.716Z,-0.43
2017-01-18T04:12:24.464Z,-0.34
2017-01-18T04:13:25.217Z,-0.39
2017-01-18T04:14:25.976Z,-0.36
2017-01-18T04:15:26.733Z,-0.41
2017-01-18T04:16:27.469Z,-0.41
2017-01-18T04:17:28.228Z,-0.29
2017-01-18T04:18:29.033Z,-0.35
2017-01-18T04:19:29.796Z,-0.36
2017-01-18T04:20:30.555Z,-0.34
2017-01-18T04:21:31.299Z,-0.44
2017-01-18T04:22:32.072Z,-0.44
2017-01-18T04:23:32.844Z,-0.54
2017-01-18T04:24:33.598Z,-0.47
2017-01-18T04:25:34.347Z,-0.46
2017-01-18T04:26:35.103Z,-0.39
2017-01-18T04:27:35.838Z,-0.46
2017-01-18T04:28:36.579Z,-0.53
2017-01-18T04:29:37.341Z,-0.56
2017-01-18T04:30:38.105Z,-0.59
2017-01-18T04:31:38.842Z,-0.46
2017-01-18T04:32:39.606Z,-0.38
2017-01-18T04:33:40.371Z,-0.44
2017-01-18T04:34:41.129Z,-0.39
2017-01-18T04:35:41.959Z,-0.31
2017-01-18T04:36:42.710Z,-0.47
2017-01-18T04:37:43.461Z,-0.43
2017-01-18T04:38:44.213Z,-0.31
2017-01-18T04:39:44.961Z,-0.39
2017-01-18T04:40:45.713Z,-0.38
2017-01-18T04:41:46.477Z,-0.31
2017-01-18T04:42:47.261Z,-0.36
2017-01-18T04:43:48.008Z,-0.44
2017-01-18T04:44:48.768Z,-0.28
2017-01-18T04:45:49.529Z,-0.25
2017-01-18T04:46:50.283Z,-0.34
2017-01-18T04:47:51.027Z,-0.15
2017-01-18T04:48:51.771Z,-0.21
2017-01-18T04:49:52.523Z,-0.17
2017-01-18T04:50:53.321Z,-0.28
2017-01-18T04:51:54.088Z,-0.29
2017-01-18T04:52:54.829Z,-0.31
2017-01-18T04:53:55.565Z,-0.31
2017-01-18T04:54:56.325Z,-0.34
2017-01-18T04:55:57.070Z,-0.29
2017-01-18T04:56:57.828Z,-0.43
2017-01-18T04:57:58.582Z,-0.39
2017-01-18T04:58:59.332Z,-0.38
2017-01-18T05:00:00.089Z,-0.34
2017-01-18T05:01:00.823Z,-0.36
2017-01-18T05:02:01.604Z,-0.44
2017-01-18T05:03:02.361Z,-0.44
2017-01-18T05:04:03.130Z,-0.44
2017-01-18T05:05:03.893Z,-0.39
2017-01-18T05:06:04.640Z,-0.47
2017-01-18T05:07:05.413Z,-0.47
2017-01-18T05:08:06.191Z,-0.59
2017-01-18T05:09:06.956Z,-0.62
2017-01-18T05:10:07.703Z,-0.49
2017-01-18T05:11:08.449Z,-0.49
2017-01-18T05:12:09.211Z,-0.59
2017-01-18T05:13:09.972Z,-0.52
2017-01-18T05:14:10.731Z,-0.41
2017-01-18T05:15:11.487Z,-0.32
2017-01-18T05:16:12.233Z,-0.38
2017-01-18T05:17:12.977Z,-0.35
2017-01-18T05:18:13.739Z,-0.26
2017-01-18T05:19:14.484Z,-0.26
2017-01-18T05:20:15.244Z,-0.28
2017-01-18T05:21:15.989Z,-0.35
2017-01-18T05:22:16.747Z,-0.17
2017-01-18T05:23:17.502Z,-0.14
2017-01-18T05:24:18.270Z,-0.18
2017-01-18T05:25:19.044Z,-0.28
2017-01-18T05:26:19.800Z,-0.34
2017-01-18T05:27:20.553Z,-0.36
2017-01-18T05:28:21.291Z,-0.34
2017-01-18T05:29:22.035Z,-0.26
2017-01-18T05:30:22.807Z,-0.29
2017-01-18T05:31:23.604Z,-0.25
2017-01-18T05:32:24.357Z,-0.26
2017-01-18T05:33:25.105Z,-0.17
2017-01-18T05:34:25.875Z,-0.23
2017-01-18T05:35:26.630Z,-0.13
2017-01-18T05:36:27.373Z,-0.15
2017-01-18T05:37:28.127Z,-0.17
2017-01-18T05:38:28.868Z,-0.17
2017-01-18T05:39:29.610Z,-0.25
2017-01-18T05:40:30.377Z,-0.39
2017-01-18T05:41:31.122Z,-0.41
2017-01-18T05:42:31.876Z,-0.31
2017-01-18T05:43:32.653Z,-0.25
2017-01-18T05:44:33.447Z,-0.31
2017-01-18T05:45:34.181Z,-0.32
2017-01-18T05:46:34.955Z,-0.41
2017-01-18T05:47:35.697Z,-0.47
2017-01-18T05:48:36.458Z,-0.36
2017-01-18T05:49:37.222Z,-0.39
2017-01-18T05:50:37.983Z,-0.39
2017-01-18T05:51:38.734Z,-0.31
2017-01-18T05:52:39.518Z,-0.36
2017-01-18T05:53:40.279Z,-0.47
2017-01-18T05:54:41.043Z,-0.57
2017-01-18T05:55:41.799Z,-0.38
2017-01-18T05:56:42.557Z,-0.57
2017-01-18T05:57:43.315Z,-0.57
2017-01-18T05:58:44.078Z,-0.65
2017-01-18T05:59:44.852Z,-0.61
2017-01-18T06:00:45.616Z,-0.57
2017-01-18T06:01:46.370Z,-0.43
2017-01-18T06:02:47.190Z,-0.41
2017-01-18T06:03:47.938Z,-0.43
2017-01-18T06:04:48.724Z,-0.47
2017-01-18T06:05:49.473Z,-0.36
2017-01-18T06:06:50.221Z,-0.36
2017-01-18T06:07:50.979Z,-0.36
2017-01-18T06:08:51.755Z,-0.35
2017-01-18T06:09:52.504Z,-0.44
2017-01-18T06:10:53.275Z,-0.41
2017-01-18T06:11:54.054Z,-0.36
2017-01-18T06:12:54.808Z,-0.41
2017-01-18T06:13:55.582Z,-0.39
2017-01-18T06:14:56.335Z,-0.35
2017-01-18T06:15:57.108Z,-0.44
2017-01-18T06:16:57.897Z,-0.36
2017-01-18T06:17:58.666Z,-0.46
2017-01-18T06:19:39.140Z,-0.39
2017-01-18T06:20:39.882Z,-0.46
2017-01-18T06:21:40.638Z,-0.41
2017-01-18T06:22:41.392Z,-0.38
2017-01-18T06:23:42.157Z,-0.43
2017-01-18T06:24:42.901Z,-0.59
2017-01-18T06:25:43.666Z,-0.43
2017-01-18T06:26:44.408Z,-0.44
2017-01-18T06:27:45.173Z,-0.49
2017-01-18T06:28:45.941Z,-0.32
2017-01-18T06:29:46.704Z,-0.31
2017-01-18T06:30:47.466Z,-0.36
2017-01-18T06:31:48.214Z,-0.32
2017-01-18T06:32:48.972Z,-0.34
2017-01-18T06:33:49.706Z,-0.32
2017-01-18T06:34:50.474Z,-0.26
2017-01-18T06:35:51.250Z,-0.31
2017-01-18T06:36:52.041Z,-0.35
2017-01-18T06:37:52.798Z,-0.31
2017-01-18T06:38:53.560Z,-0.21
2017-01-18T06:39:54.327Z,-0.26
2017-01-18T06:40:55.076Z,-0.31
2017-01-18T06:41:55.823Z,-0.26
2017-01-18T06:42:56.599Z,-0.28
2017-01-18T06:43:57.368Z,-0.11
2017-01-18T06:44:58.130Z,-0.17
2017-01-18T06:45:58.913Z,-0.14
2017-01-18T06:46:59.636Z,-0.1
2017-01-18T06:48:00.383Z,-0.1
2017-01-18T06:49:01.159Z,-0.06
2017-01-18T06:50:01.899Z,-0.02
2017-01-18T06:51:02.640Z,0.08
2017-01-18T06:52:03.394Z,0.07
2017-01-18T06:53:04.182Z,-0.06
2017-01-18T06:54:04.939Z,-0.03
2017-01-18T06:55:05.696Z,0.03
2017-01-18T06:56:06.451Z,-0.02
2017-01-18T06:57:07.246Z,0.1
2017-01-18T06:58:07.937Z,0.05
2017-01-18T06:59:08.694Z,0.07
2017-01-18T07:00:09.476Z,0.1
2017-01-18T07:01:10.220Z,0.19
2017-01-18T07:02:10.989Z,0.16
2017-01-18T07:03:11.727Z,0.25
2017-01-18T07:04:12.501Z,0.16
2017-01-18T07:05:13.271Z,0.11
2017-01-18T07:06:14.040Z,0.07
2017-01-18T07:07:14.864Z,0.05
2017-01-18T07:08:15.662Z,0.05
2017-01-18T07:09:16.444Z,0.05
2017-01-18T07:10:17.205Z,0.22
2017-01-18T07:11:17.955Z,0.12
2017-01-18T07:12:20.540Z,0.07
2017-01-18T07:13:21.290Z,0.11
2017-01-18T07:14:22.091Z,0.04
2017-01-18T07:15:22.838Z,0
2017-01-18T07:16:23.586Z,-0.03
2017-01-18T07:17:24.351Z,-0.02
2017-01-18T07:18:25.099Z,-0.07
2017-01-18T07:19:25.873Z,-0.11
2017-01-18T07:20:26.618Z,-0.08
2017-01-18T07:21:27.370Z,-0.15
2017-01-18T07:22:28.135Z,-0.06
2017-01-18T07:23:28.865Z,-0.07
2017-01-18T07:24:29.631Z,-0.1
2017-01-18T07:25:30.434Z,-0.11
2017-01-18T07:26:31.176Z,-0.14
2017-01-18T07:27:31.924Z,-0.07
2017-01-18T07:28:32.666Z,0.07
2017-01-18T07:29:33.408Z,0.07
2017-01-18T07:30:34.136Z,0.07
2017-01-18T07:31:34.882Z,0.07
2017-01-18T07:32:35.613Z,0.12
2017-01-18T07:33:36.339Z,0.11
2017-01-18T07:34:37.104Z,0.1
2017-01-18T07:35:37.863Z,0.04
2017-01-18T07:36:38.603Z,0.01
2017-01-18T07:37:39.385Z,0.01
2017-01-18T07:38:40.117Z,0.03
2017-01-18T07:39:40.846Z,0.04
2017-01-18T07:40:41.570Z,0.01
2017-01-18T07:41:42.322Z,-0.02
2017-01-18T07:42:43.060Z,0
2017-01-18T07:43:43.792Z,0.01
2017-01-18T07:44:44.512Z,0
2017-01-18T07:45:45.236Z,0.05
2017-01-18T07:46:45.984Z,0.03
2017-01-18T07:47:46.728Z,0.04
2017-01-18T07:48:47.466Z,0.05
2017-01-18T07:49:48.230Z,0.1
2017-01-18T07:50:49.019Z,0.11
2017-01-18T07:51:49.762Z,0.15
2017-01-18T07:52:50.516Z,0.08
2017-01-18T07:53:51.257Z,0.1
2017-01-18T07:54:52.031Z,0.15
2017-01-18T07:55:52.781Z,0.18
2017-01-18T07:56:53.529Z,0.21
2017-01-18T07:57:54.259Z,0.16
2017-01-18T07:58:55.007Z,0.21
2017-01-18T07:59:55.756Z,0.21
2017-01-18T08:00:56.521Z,0.26
2017-01-18T08:01:57.270Z,0.21
2017-01-18T08:02:58.044Z,0.16
2017-01-18T08:03:58.807Z,0.12
2017-01-18T08:04:59.549Z,0.26
2017-01-18T08:06:00.299Z,0.18
2017-01-18T08:07:01.055Z,0.15
2017-01-18T08:08:01.788Z,0.19
2017-01-18T08:09:02.529Z,0.28
2017-01-18T08:10:03.261Z,0.25
2017-01-18T08:11:04.026Z,0.23
2017-01-18T08:12:04.780Z,0.34
2017-01-18T08:13:05.531Z,0.32
2017-01-18T08:14:06.269Z,0.28
2017-01-18T08:15:07.011Z,0.26
2017-01-18T08:16:07.774Z,0.23
2017-01-18T08:17:08.501Z,0.25
2017-01-18T08:18:09.282Z,0.23
2017-01-18T08:19:10.017Z,0.23
2017-01-18T08:20:10.747Z,0.18
2017-01-18T08:21:11.485Z,0.18
2017-01-18T08:22:12.219Z,0.22
2017-01-18T08:23:12.968Z,0.31
2017-01-18T08:24:13.730Z,0.37
2017-01-18T08:25:14.514Z,0.32
2017-01-18T08:26:15.299Z,0.28
2017-01-18T08:27:16.057Z,0.34
2017-01-18T08:28:16.791Z,0.39
2017-01-18T08:29:17.570Z,0.34
2017-01-18T08:30:18.319Z,0.4
2017-01-18T08:31:19.078Z,0.39
2017-01-18T08:32:19.817Z,0.36
2017-01-18T08:33:20.575Z,0.32
2017-01-18T08:34:21.311Z,0.32
2017-01-18T08:35:22.060Z,0.28
2017-01-18T08:36:22.788Z,0.34
2017-01-18T08:37:23.534Z,0.34
2017-01-18T08:38:24.282Z,0.36
2017-01-18T08:39:25.051Z,0.36
2017-01-18T08:40:25.788Z,0.29
2017-01-18T08:41:26.531Z,0.28
2017-01-18T08:42:27.287Z,0.36
2017-01-18T08:43:28.020Z,0.39
2017-01-18T08:44:28.745Z,0.32
2017-01-18T08:45:29.521Z,0.37
2017-01-18T08:46:30.269Z,0.28
2017-01-18T08:47:31.026Z,0.28
2017-01-18T08:48:31.772Z,0.36
2017-01-18T08:49:32.489Z,0.05
2017-01-18T08:50:33.233Z,0.07
2017-01-18T08:51:33.996Z,0.11
2017-01-18T08:52:34.786Z,0.03
2017-01-18T08:53:35.542Z,0.16
2017-01-18T08:54:36.272Z,0.21
2017-01-18T08:55:37.000Z,0.31
2017-01-18T08:56:37.739Z,0.28
2017-01-18T08:57:38.508Z,0.23
2017-01-18T08:58:39.267Z,0.37
2017-01-18T08:59:40.041Z,0.32
2017-01-18T09:00:40.768Z,0.32
2017-01-18T09:01:41.540Z,0.34
2017-01-18T09:02:42.340Z,0.25
2017-01-18T09:03:43.087Z,0.28
2017-01-18T09:04:43.830Z,0.28
2017-01-18T09:05:44.609Z,0.25
2017-01-18T09:06:45.400Z,0.28
2017-01-18T09:07:46.157Z,0.34
2017-01-18T09:08:46.923Z,0.37
2017-01-18T09:09:47.656Z,0.39
2017-01-18T09:10:48.403Z,0.49
2017-01-18T09:11:49.157Z,0.59
2017-01-18T09:12:49.950Z,0.58
2017-01-18T09:13:50.687Z,0.5
2017-01-18T09:14:51.446Z,0.4
2017-01-18T09:15:52.167Z,0.46
2017-01-18T09:16:52.922Z,0.5
2017-01-18T09:17:53.665Z,0.49
2017-01-18T09:18:54.408Z,0.47
2017-01-18T09:19:55.158Z,0.49
2017-01-18T09:20:55.887Z,0.44
2017-01-18T09:21:56.623Z,0.36
2017-01-18T09:22:57.410Z,0.32
2017-01-18T09:23:58.174Z,0.37
2017-01-18T09:24:58.908Z,0.41
2017-01-18T09:25:59.648Z,0.47
2017-01-18T09:27:00.383Z,0.58
2017-01-18T09:28:01.135Z,0.56
2017-01-18T09:29:01.876Z,0.63
2017-01-18T09:30:02.615Z,0.62
2017-01-18T09:31:03.355Z,0.63
2017-01-18T09:32:04.141Z,0.74
2017-01-18T09:33:04.886Z,0.65
2017-01-18T09:34:05.659Z,0.63
2017-01-18T09:35:06.435Z,0.62
2017-01-18T09:36:07.241Z,0.65
2017-01-18T09:37:07.971Z,0.73
2017-01-18T09:38:08.698Z,0.62
2017-01-18T09:39:09.471Z,0.58
2017-01-18T09:40:10.197Z,0.55
2017-01-18T09:41:10.952Z,0.4
2017-01-18T09:42:11.689Z,0.41
2017-01-18T09:43:12.429Z,0.44
2017-01-18T09:44:13.203Z,0.5
2017-01-18T09:45:13.963Z,0.52
2017-01-18T09:46:14.687Z,0.5
2017-01-18T09:47:15.458Z,0.46
2017-01-18T09:48:16.197Z,0.55
2017-01-18T09:49:17.036Z,0.47
2017-01-18T09:50:17.766Z,0.56
2017-01-18T09:51:18.529Z,0.68
2017-01-18T09:52:19.264Z,0.59
2017-01-18T09:53:20.016Z,0.59
2017-01-18T09:54:20.781Z,0.66
2017-01-18T09:55:21.534Z,0.62
2017-01-18T09:56:22.333Z,0.59
2017-01-18T09:57:23.113Z,0.56
2017-01-18T09:58:23.895Z,0.59
2017-01-18T09:59:24.700Z,0.36
2017-01-18T10:00:25.591Z,0.49
2017-01-18T10:01:26.383Z,0.4
2017-01-18T10:02:27.188Z,0.32
2017-01-18T10:03:27.944Z,0.26
2017-01-18T10:04:29.292Z,0.29
2017-01-18T10:05:30.043Z,0.29
2017-01-18T10:06:30.794Z,0.28
2017-01-18T10:07:31.554Z,0.36
2017-01-18T10:08:32.326Z,0.39
2017-01-18T10:09:33.075Z,0.46
2017-01-18T10:10:33.836Z,0.43
2017-01-18T10:11:34.612Z,0.49
2017-01-18T10:12:35.349Z,0.5
2017-01-18T10:13:36.104Z,0.56
2017-01-18T10:14:36.861Z,0.52
2017-01-18T10:15:37.621Z,0.59
2017-01-18T10:16:38.379Z,0.56
2017-01-18T10:17:39.127Z,0.68
2017-01-18T10:18:39.849Z,0.68
2017-01-18T10:19:40.635Z,0.7
2017-01-18T10:20:41.361Z,0.68
2017-01-18T10:21:42.183Z,0.63
2017-01-18T10:22:42.922Z,0.5
2017-01-18T10:23:43.666Z,0.6
2017-01-18T10:24:44.438Z,0.6
2017-01-18T10:25:45.185Z,0.6
2017-01-18T10:26:45.922Z,0.69
2017-01-18T10:27:46.655Z,0.6
2017-01-18T10:28:47.389Z,0.6
2017-01-18T10:29:48.111Z,0.59
2017-01-18T10:30:48.870Z,0.68
2017-01-18T10:31:49.614Z,0.63
2017-01-18T10:32:50.378Z,0.52
2017-01-18T10:33:51.182Z,0.59
2017-01-18T10:34:51.918Z,0.68
2017-01-18T10:35:52.662Z,0.7
2017-01-18T10:36:53.399Z,0.8
2017-01-18T10:37:54.128Z,0.84
2017-01-18T10:38:54.894Z,0.88
2017-01-18T10:39:55.634Z,0.86
2017-01-18T10:40:56.382Z,0.83
2017-01-18T10:41:57.161Z,0.91
2017-01-18T10:42:57.901Z,0.92
2017-01-18T10:43:58.644Z,0.94
2017-01-18T10:44:59.408Z,0.87
2017-01-18T10:46:00.179Z,0.84
2017-01-18T10:47:00.946Z,0.96
2017-01-18T10:48:01.681Z,0.94
2017-01-18T10:49:02.418Z,0.94
2017-01-18T10:50:03.192Z,0.91
2017-01-18T10:51:03.918Z,0.96
2017-01-18T10:52:04.681Z,0.99
2017-01-18T10:53:05.417Z,0.88
2017-01-18T10:54:06.163Z,0.87
2017-01-18T10:55:06.903Z,0.77
2017-01-18T10:56:07.649Z,0.99
2017-01-18T10:57:08.393Z,1.08
2017-01-18T10:58:09.122Z,1.1
2017-01-18T10:59:09.853Z,1.02
2017-01-18T11:00:10.748Z,1.13
2017-01-18T11:01:11.521Z,1.14
2017-01-18T11:02:12.246Z,1.2
2017-01-18T11:03:13.043Z,1.1
2017-01-18T11:04:13.771Z,1.19
2017-01-18T11:05:14.523Z,1.1
2017-01-18T11:06:15.266Z,1.01
2017-01-18T11:07:16.025Z,1.16
2017-01-18T11:08:16.776Z,1.13
2017-01-18T11:09:17.486Z,1.08
2017-01-18T11:10:18.239Z,1.06
2017-01-18T11:11:19.077Z,1.06
2017-01-18T11:12:19.831Z,0.96
2017-01-18T11:13:20.588Z,1.12
2017-01-18T11:14:21.326Z,1.17
2017-01-18T11:15:22.063Z,1.17
2017-01-18T11:16:22.815Z,1.17
2017-01-18T11:17:23.551Z,1.24
2017-01-18T11:18:24.317Z,1.22
2017-01-18T11:19:25.059Z,1.22
2017-01-18T11:20:25.816Z,1.3
2017-01-18T11:21:26.556Z,1.19
2017-01-18T11:22:27.285Z,1.14
2017-01-18T11:23:28.037Z,1.14
2017-01-18T11:24:28.782Z,1.08
2017-01-18T11:25:29.520Z,1.23
2017-01-18T11:26:30.259Z,1.16
2017-01-18T11:27:31.011Z,1.23
2017-01-18T11:28:31.785Z,1.2
2017-01-18T11:29:32.511Z,1.12
2017-01-18T11:30:33.261Z,1.2
2017-01-18T11:31:34.012Z,1.24
2017-01-18T11:32:34.756Z,1.37
2017-01-18T11:33:35.533Z,1.35
2017-01-18T11:34:36.281Z,1.31
2017-01-18T11:35:37.033Z,1.34
2017-01-18T11:36:37.802Z,1.37
2017-01-18T11:37:38.530Z,1.48
2017-01-18T11:38:39.294Z,1.48
2017-01-18T11:39:40.093Z,1.49
2017-01-18T11:40:40.843Z,1.45
2017-01-18T11:41:41.652Z,1.48
2017-01-18T11:42:42.361Z,1.35
2017-01-18T11:43:43.098Z,1.35
2017-01-18T11:44:43.894Z,1.35
2017-01-18T11:45:44.629Z,1.35
2017-01-18T11:46:45.390Z,1.37
2017-01-18T11:47:46.122Z,1.22
2017-01-18T11:48:46.859Z,1.32
2017-01-18T11:49:47.640Z,1.31
2017-01-18T11:50:48.379Z,1.32
2017-01-18T11:51:49.122Z,1.35
2017-01-18T11:52:49.869Z,1.31
2017-01-18T11:53:50.616Z,1.26
2017-01-18T11:54:51.367Z,1.35
2017-01-18T11:55:52.125Z,1.42
2017-01-18T11:56:52.847Z,1.35
2017-01-18T11:57:53.606Z,1.35
2017-01-18T11:58:54.343Z,1.34
2017-01-18T11:59:55.095Z,1.34
2017-01-18T12:00:55.847Z,1.38
2017-01-18T12:01:56.698Z,1.4
2017-01-18T12:02:57.460Z,1.35
2017-01-18T12:03:58.187Z,1.32
2017-01-18T12:04:58.933Z,1.32
2017-01-18T12:05:59.669Z,1.35
2017-01-18T12:07:00.423Z,1.26
2017-01-18T12:08:01.177Z,1.24
2017-01-18T12:09:01.955Z,1.23
2017-01-18T12:10:02.717Z,1.31
2017-01-18T12:11:03.450Z,1.17
2017-01-18T12:12:04.197Z,1.17
2017-01-18T12:13:04.952Z,1.05
2017-01-18T12:14:05.727Z,1.06
2017-01-18T12:15:06.500Z,1.08
2017-01-18T12:16:07.223Z,1.1
2017-01-18T12:17:07.989Z,1.19
2017-01-18T12:18:08.716Z,1.14
2017-01-18T12:19:09.462Z,1.19
2017-01-18T12:20:10.217Z,0.99
2017-01-18T12:21:10.964Z,0.95
2017-01-18T12:22:11.749Z,0.96
2017-01-18T12:23:12.469Z,1.04
2017-01-18T12:24:13.271Z,1.05
2017-01-18T12:25:14.000Z,1.06
2017-01-18T12:26:14.747Z,0.98
2017-01-18T12:27:15.484Z,0.99
2017-01-18T12:28:16.216Z,1.05
2017-01-18T12:29:16.956Z,1.05
2017-01-18T12:30:17.749Z,1.13
2017-01-18T12:31:18.591Z,1.12
2017-01-18T12:32:19.309Z,1.22
2017-01-18T12:33:20.056Z,1.34
2017-01-18T12:34:20.799Z,1.24
2017-01-18T12:35:21.536Z,1.22
2017-01-18T12:36:22.359Z,1.19
2017-01-18T12:37:23.108Z,1.26
2017-01-18T12:38:23.843Z,1.37
2017-01-18T12:39:24.586Z,1.37
2017-01-18T12:40:25.337Z,1.41
2017-01-18T12:41:26.172Z,1.32
2017-01-18T12:42:26.880Z,1.32
2017-01-18T12:43:27.651Z,1.44
2017-01-18T12:44:28.407Z,1.48
2017-01-18T12:45:29.176Z,1.5
2017-01-18T12:46:30.131Z,1.5
2017-01-18T12:47:30.769Z,1.6
2017-01-18T12:48:31.522Z,1.63
2017-01-18T12:49:32.266Z,1.5
2017-01-18T12:50:33.010Z,1.48
2017-01-18T12:51:33.748Z,1.42
2017-01-18T12:52:34.497Z,1.42
2017-01-18T12:53:35.668Z,1.32
2017-01-18T12:54:36.080Z,1.24
2017-01-18T12:55:36.897Z,1.24
2017-01-18T12:56:37.648Z,1.34
2017-01-18T12:57:38.420Z,1.42
2017-01-18T12:58:39.196Z,1.44
2017-01-18T12:59:40.079Z,1.52
2017-01-18T13:00:40.837Z,1.41
2017-01-18T13:01:41.602Z,1.42
2017-01-18T13:02:42.372Z,1.44
2017-01-18T13:03:43.180Z,1.49
2017-01-18T13:04:43.918Z,1.44
2017-01-18T13:05:44.667Z,1.49
2017-01-18T13:06:45.438Z,1.44
2017-01-18T13:07:46.207Z,1.35
2017-01-18T13:08:47.029Z,1.37
2017-01-18T13:09:47.793Z,1.31
2017-01-18T13:10:48.547Z,1.32
2017-01-18T13:11:49.292Z,1.26
2017-01-18T13:12:50.048Z,1.23
2017-01-18T13:13:50.807Z,1.24
2017-01-18T13:14:51.642Z,1.17
2017-01-18T13:15:52.416Z,1.19
2017-01-18T13:16:53.200Z,1.19
2017-01-18T13:17:53.941Z,1.16
2017-01-18T13:18:54.725Z,1.14
2017-01-18T13:19:55.466Z,1.05
2017-01-18T13:20:56.251Z,1.12
2017-01-18T13:21:57.170Z,1.17
2017-01-18T13:22:58.045Z,1.12
2017-01-18T13:23:58.802Z,1.06
2017-01-18T13:24:59.554Z,1.1